createdAt,value
2019-01-26T00:02:33.764Z,37.53
2019-01-26T00:05:21.672Z,44.20
2019-01-26T00:07:50.294Z,35.30
2019-01-26T00:10:38.304Z,33.40
2019-01-26T00:13:06.931Z,40.30
2019-01-26T00:15:35.691Z,48.30
2019-01-26T00:18:23.779Z,39.40
2019-01-26T00:21:07.796Z,35.23
2019-01-26T00:23:55.777Z,39.48
2019-01-26T00:26:37.571Z,34.03
2019-01-26T00:29:25.622Z,31.60
2019-01-26T00:32:10.848Z,41.25
2019-01-26T00:34:39.472Z,49.50
2019-01-26T00:37:27.482Z,43.38
2019-01-26T00:39:56.123Z,44.63
2019-01-26T00:42:24.856Z,41.37
2019-01-26T00:44:53.497Z,36.08
2019-01-26T00:47:41.411Z,39.95
2019-01-26T00:50:30.919Z,46.98
2019-01-26T00:52:59.680Z,37.90
2019-01-26T00:55:28.362Z,49.05
2019-01-26T00:57:57.153Z,42.90
2019-01-26T01:00:25.909Z,42.25
2019-01-26T01:03:13.895Z,46.25
2019-01-26T01:05:43.549Z,38.23
2019-01-26T01:08:12.238Z,50.40
2019-01-26T01:10:40.995Z,38.78
2019-01-26T01:13:22.324Z,44.42
2019-01-26T01:16:10.350Z,38.20
2019-01-26T01:18:52.124Z,46.95
2019-01-26T01:21:40.184Z,46.85
2019-01-26T01:24:21.235Z,41.42
2019-01-26T01:27:09.270Z,40.28
2019-01-26T01:29:50.679Z,36.60
2019-01-26T01:32:38.711Z,51.08
2019-01-26T01:35:20.650Z,41.25
2019-01-26T01:37:49.315Z,43.42
2019-01-26T01:40:18.376Z,60.88
2019-01-26T01:42:47.103Z,38.88
2019-01-26T01:45:35.113Z,47.27
2019-01-26T01:48:16.253Z,39.33
2019-01-26T01:50:44.937Z,43.78
2019-01-26T01:53:13.534Z,48.68
2019-01-26T01:55:42.234Z,42.53
2019-01-26T01:58:11.004Z,44.58
2019-01-26T02:00:39.772Z,43.17
2019-01-26T02:03:27.731Z,43.80
2019-01-26T02:06:09.855Z,49.60
2019-01-26T02:08:57.786Z,42.43
2019-01-26T02:11:39.827Z,37.35
2019-01-26T02:14:21.107Z,44.08
2019-01-26T02:17:09.372Z,38.73
2019-01-26T02:19:51.038Z,49.05
2019-01-26T02:22:39.312Z,49.80
2019-01-26T02:25:21.484Z,42.88
2019-01-26T02:28:28.978Z,36.60
2019-01-26T02:31:13.596Z,40.95
2019-01-26T02:34:01.897Z,42.53
2019-01-26T02:36:50.031Z,36.83
2019-01-26T02:39:38.337Z,38.35
2019-01-26T02:42:19.946Z,37.67
2019-01-26T02:45:27.467Z,36.13
2019-01-26T02:48:09.125Z,28.87
2019-01-26T02:50:57.382Z,43.02
2019-01-26T02:53:39.678Z,49.88
2019-01-26T02:56:27.974Z,42.43
2019-01-26T02:59:12.259Z,33.10
2019-01-26T03:02:03.250Z,29.18
2019-01-26T03:04:44.584Z,36.40
2019-01-26T03:07:32.776Z,34.70
2019-01-26T03:10:16.319Z,33.85
2019-01-26T03:13:04.811Z,33.33
2019-01-26T03:15:47.100Z,35.78
2019-01-26T03:18:35.522Z,35.45
2019-01-26T03:21:17.827Z,42.80
2019-01-26T03:24:05.839Z,39.78
2019-01-26T03:26:49.398Z,30.20
2019-01-26T03:29:38.298Z,28.10
2019-01-26T03:32:20.897Z,35.08
2019-01-26T03:35:09.206Z,37.45
2019-01-26T03:37:52.095Z,30.40
2019-01-26T03:40:41.718Z,34.92
2019-01-26T03:43:24.885Z,25.82
2019-01-26T03:46:15.137Z,40.10
2019-01-26T03:48:58.607Z,26.05
2019-01-26T03:51:27.381Z,39.95
2019-01-26T03:54:15.583Z,27.02
2019-01-26T03:56:57.292Z,35.52
2019-01-26T03:59:45.637Z,32.75
2019-01-26T04:02:27.568Z,31.33
2019-01-26T04:05:15.941Z,39.70
2019-01-26T04:08:04.176Z,28.73
2019-01-26T04:10:52.674Z,25.57
2019-01-26T04:13:34.404Z,32.25
2019-01-26T04:16:22.538Z,31.57
2019-01-26T04:19:10.711Z,33.30
2019-01-26T04:21:58.817Z,28.17
2019-01-26T04:24:47.059Z,25.08
2019-01-26T04:27:35.198Z,33.67
2019-01-26T04:30:18.196Z,28.30
2019-01-26T04:33:06.279Z,31.45
2019-01-26T04:35:48.359Z,24.60
2019-01-26T04:38:30.100Z,29.10
2019-01-26T04:41:18.185Z,25.85
2019-01-26T04:43:59.815Z,27.22
2019-01-26T04:46:48.781Z,30.90
2019-01-26T04:49:31.499Z,25.12
2019-01-26T04:52:19.893Z,26.73
2019-01-26T04:55:02.893Z,30.37
2019-01-26T04:57:51.789Z,33.08
2019-01-26T05:00:34.175Z,26.90
2019-01-26T05:03:22.519Z,26.57
2019-01-26T05:06:04.444Z,25.30
2019-01-26T05:11:53.553Z,27.85
2019-01-26T05:14:35.804Z,28.98
2019-01-26T05:17:17.337Z,25.48
2019-01-26T05:20:07.035Z,25.40
2019-01-26T05:22:48.758Z,22.50
2019-01-26T05:25:36.795Z,22.98
2019-01-26T05:28:18.545Z,22.65
2019-01-26T05:31:06.592Z,18.05
2019-01-26T05:33:49.148Z,14.68
2019-01-26T05:36:37.209Z,15.78
2019-01-26T05:39:20.062Z,23.15
2019-01-26T05:41:48.667Z,17.55
2019-01-26T05:44:36.653Z,22.20
2019-01-26T05:47:18.280Z,15.25
2019-01-26T05:50:07.798Z,19.12
2019-01-26T05:52:49.098Z,18.02
2019-01-26T05:55:37.170Z,16.10
2019-01-26T05:58:19.150Z,14.63
2019-01-26T06:01:01.006Z,14.93
2019-01-26T06:03:49.005Z,14.53
2019-01-26T06:06:30.136Z,22.20
2019-01-26T06:09:18.249Z,19.12
2019-01-26T06:12:00.325Z,15.83
2019-01-26T06:14:48.325Z,15.10
2019-01-26T06:17:30.016Z,13.08
2019-01-26T06:20:18.044Z,13.18
2019-01-26T06:23:06.028Z,20.08
2019-01-26T06:25:48.232Z,17.52
2019-01-26T06:28:36.190Z,13.48
2019-01-26T06:31:18.149Z,15.08
2019-01-26T06:34:06.229Z,14.40
2019-01-26T06:36:47.641Z,20.00
2019-01-26T06:39:35.612Z,13.70
2019-01-26T06:42:17.559Z,15.18
2019-01-26T06:45:26.299Z,21.17
2019-01-26T06:48:08.029Z,11.28
2019-01-26T06:50:56.060Z,13.30
2019-01-26T06:53:44.118Z,13.22
2019-01-26T06:56:25.876Z,14.80
2019-01-26T06:59:13.803Z,11.15
2019-01-26T07:01:55.435Z,11.75
2019-01-26T07:07:39.619Z,11.70
2019-01-26T07:10:27.617Z,15.03
2019-01-26T07:13:09.825Z,14.03
2019-01-26T07:18:59.461Z,14.40
2019-01-26T07:21:47.475Z,11.78
2019-01-26T07:24:32.261Z,16.40
2019-01-26T07:30:19.909Z,13.70
2019-01-26T07:33:07.953Z,10.38
2019-01-26T07:35:50.068Z,14.87
2019-01-26T07:38:18.676Z,16.02
2019-01-26T07:41:06.733Z,13.40
2019-01-26T07:43:35.316Z,13.80
2019-01-26T07:46:23.535Z,14.65
2019-01-26T07:48:52.233Z,13.45
2019-01-26T07:51:42.649Z,13.15
2019-01-26T07:54:24.109Z,17.73
2019-01-26T07:57:13.612Z,11.15
2019-01-26T07:59:55.542Z,13.50
2019-01-26T08:02:43.612Z,11.83
2019-01-26T08:05:33.064Z,11.80
2019-01-26T08:08:15.157Z,19.65
2019-01-26T08:11:03.155Z,13.65
2019-01-26T08:13:45.144Z,12.65
2019-01-26T08:16:26.489Z,11.15
2019-01-26T08:19:14.642Z,13.40
2019-01-26T08:21:56.127Z,14.25
2019-01-26T08:24:44.704Z,13.55
2019-01-26T08:27:27.185Z,12.65
2019-01-26T08:29:55.909Z,16.52
2019-01-26T08:32:44.021Z,15.15
2019-01-26T08:35:32.080Z,20.68
2019-01-26T08:38:15.650Z,14.90
2019-01-26T08:41:03.653Z,14.55
2019-01-26T08:43:45.590Z,14.00
2019-01-26T08:46:33.576Z,13.90
2019-01-26T08:49:15.607Z,11.80
2019-01-26T08:52:03.817Z,9.08
2019-01-26T08:54:45.252Z,10.28
2019-01-26T08:57:33.313Z,13.20
2019-01-26T09:00:19.654Z,20.23
2019-01-26T09:09:08.207Z,9.08
2019-01-26T09:11:56.194Z,16.62
2019-01-26T09:14:38.092Z,12.10
2019-01-26T09:17:20.017Z,13.05
2019-01-26T09:20:28.838Z,10.08
2019-01-26T09:23:10.206Z,11.35
2019-01-26T09:25:52.004Z,11.73
2019-01-26T09:28:39.937Z,11.95
2019-01-26T09:31:21.092Z,10.30
2019-01-26T09:34:09.092Z,12.50
2019-01-26T09:36:51.053Z,10.53
2019-01-26T09:39:39.054Z,10.98
2019-01-26T09:42:25.117Z,15.65
2019-01-26T09:45:27.581Z,12.05
2019-01-26T09:48:09.764Z,10.28
2019-01-26T09:50:51.768Z,13.00
2019-01-26T09:53:39.790Z,10.85
2019-01-26T09:56:21.863Z,9.70
2019-01-26T09:58:50.576Z,10.03
2019-01-26T10:01:38.546Z,10.30
2019-01-26T10:04:20.425Z,9.25
2019-01-26T10:07:08.478Z,9.35
2019-01-26T10:09:50.432Z,8.45
2019-01-26T10:12:38.569Z,10.43
2019-01-26T10:15:22.122Z,9.80
2019-01-26T10:18:04.848Z,13.43
2019-01-26T10:20:52.875Z,17.23
2019-01-26T10:23:34.858Z,15.03
2019-01-26T10:26:22.834Z,8.18
2019-01-26T10:29:04.952Z,8.60
2019-01-26T10:31:53.049Z,7.80
2019-01-26T10:34:35.104Z,10.72
2019-01-26T10:40:44.787Z,7.00
2019-01-26T10:43:52.038Z,5.17
2019-01-26T10:46:59.612Z,6.03
2019-01-26T10:49:41.516Z,8.58
2019-01-26T10:52:29.500Z,8.55
2019-01-26T10:55:11.822Z,7.60
2019-01-26T10:57:59.917Z,6.30
2019-01-26T11:00:41.531Z,6.22
2019-01-26T11:06:32.326Z,7.17
2019-01-26T11:09:20.373Z,7.72
2019-01-26T11:12:03.223Z,7.85
2019-01-26T11:14:51.235Z,7.90
2019-01-26T11:17:33.355Z,9.38
2019-01-26T11:20:21.395Z,15.23
2019-01-26T11:23:03.277Z,7.15
2019-01-26T11:25:32.519Z,5.22
2019-01-26T11:28:01.260Z,10.80
2019-01-26T11:30:49.491Z,6.33
2019-01-26T11:33:18.265Z,8.55
2019-01-26T11:35:47.113Z,6.30
2019-01-26T11:38:35.198Z,8.90
2019-01-26T11:41:16.741Z,10.70
2019-01-26T11:44:04.770Z,6.47
2019-01-26T11:46:33.456Z,8.38
2019-01-26T11:49:02.126Z,8.93
2019-01-26T11:51:51.762Z,11.53
2019-01-26T11:54:34.016Z,7.53
2019-01-26T11:57:22.092Z,5.80
2019-01-26T12:00:24.721Z,8.13
2019-01-26T12:03:31.992Z,7.67
2019-01-26T12:06:17.588Z,6.10
2019-01-26T12:08:46.445Z,7.55
2019-01-26T12:11:34.517Z,5.50
2019-01-26T12:14:22.650Z,6.97
2019-01-26T12:17:04.172Z,8.85
2019-01-26T12:19:52.159Z,6.05
2019-01-26T12:22:34.685Z,6.50
2019-01-26T12:25:16.854Z,8.25
2019-01-26T12:28:04.869Z,5.03
2019-01-26T12:30:46.817Z,9.60
2019-01-26T12:33:34.881Z,8.50
2019-01-26T12:36:16.940Z,10.55
2019-01-26T12:39:25.668Z,5.92
2019-01-26T12:42:07.745Z,8.03
2019-01-26T12:44:55.708Z,6.90
2019-01-26T12:47:37.494Z,7.17
2019-01-26T12:50:25.706Z,10.72
2019-01-26T12:53:11.285Z,7.78
2019-01-26T12:55:53.468Z,4.85
2019-01-26T12:58:41.468Z,5.35
2019-01-26T13:01:23.259Z,6.45
2019-01-26T13:04:11.272Z,6.03
2019-01-26T13:06:53.032Z,6.78
2019-01-26T13:09:54.824Z,8.78
2019-01-26T13:12:23.897Z,7.70
2019-01-26T13:15:15.358Z,6.42
2019-01-26T13:17:56.125Z,12.43
2019-01-26T13:20:37.373Z,9.13
2019-01-26T13:23:25.401Z,5.20
2019-01-26T13:26:08.526Z,7.33
2019-01-26T13:28:50.377Z,6.17
2019-01-26T13:31:38.392Z,6.35
2019-01-26T13:34:20.020Z,7.12
2019-01-26T13:37:08.083Z,5.58
2019-01-26T13:39:51.025Z,6.17
2019-01-26T13:42:39.038Z,8.18
2019-01-26T13:45:20.189Z,5.55
2019-01-26T13:48:08.184Z,7.40
2019-01-26T13:50:50.405Z,4.92
2019-01-26T13:53:19.142Z,6.20
2019-01-26T13:55:47.731Z,8.50
2019-01-26T13:58:16.500Z,6.08
2019-01-26T14:00:45.279Z,8.38
2019-01-26T14:03:33.308Z,5.10
2019-01-26T14:06:01.963Z,7.15
2019-01-26T14:08:30.707Z,10.55
2019-01-26T14:10:59.370Z,6.55
2019-01-26T14:13:27.984Z,8.15
2019-01-26T14:19:20.030Z,9.65
2019-01-26T14:22:01.973Z,6.28
2019-01-26T14:24:50.049Z,6.05
2019-01-26T14:27:38.154Z,8.38
2019-01-26T14:30:23.832Z,6.25
2019-01-26T14:33:11.805Z,12.35
2019-01-26T14:35:53.811Z,7.67
2019-01-26T14:38:41.849Z,9.85
2019-01-26T14:41:23.804Z,6.70
2019-01-26T14:44:11.808Z,10.53
2019-01-26T14:46:53.646Z,5.90
2019-01-26T14:49:41.642Z,11.28
2019-01-26T14:52:23.409Z,6.30
2019-01-26T14:55:32.146Z,8.80
2019-01-26T14:58:14.256Z,8.35
2019-01-26T15:00:42.971Z,6.25
2019-01-26T15:03:31.077Z,18.37
2019-01-26T15:06:13.123Z,11.22
2019-01-26T15:08:55.969Z,4.80
2019-01-26T15:11:44.013Z,7.50
2019-01-26T15:14:25.882Z,9.65
2019-01-26T15:17:13.834Z,6.55
2019-01-26T15:19:55.108Z,6.40
2019-01-26T15:22:43.038Z,8.40
2019-01-26T15:25:24.978Z,6.20
2019-01-26T15:28:12.946Z,8.33
2019-01-26T15:31:01.007Z,16.00
2019-01-26T15:33:42.225Z,9.33
2019-01-26T15:36:30.267Z,8.30
2019-01-26T15:39:11.795Z,19.90
2019-01-26T15:41:59.904Z,10.15
2019-01-26T15:44:41.568Z,9.40
2019-01-26T15:47:29.634Z,8.30
2019-01-26T15:50:13.224Z,9.93
2019-01-26T15:53:01.459Z,9.10
2019-01-26T15:55:43.380Z,9.80
2019-01-26T15:58:31.351Z,9.15
2019-01-26T16:01:13.385Z,12.70
2019-01-26T16:04:01.421Z,11.68
2019-01-26T16:06:43.393Z,9.10
2019-01-26T16:09:31.442Z,8.93
2019-01-26T16:12:12.687Z,12.47
2019-01-26T16:15:00.637Z,22.60
2019-01-26T16:17:42.207Z,14.03
2019-01-26T16:20:24.043Z,12.47
2019-01-26T16:23:09.668Z,11.12
2019-01-26T16:25:55.830Z,15.10
2019-01-26T16:28:37.379Z,9.00
2019-01-26T16:31:06.144Z,12.45
2019-01-26T16:33:54.093Z,10.98
2019-01-26T16:36:42.070Z,16.15
2019-01-26T16:39:24.071Z,12.80
2019-01-26T16:42:12.059Z,15.70
2019-01-26T16:45:00.197Z,15.23
2019-01-26T16:47:42.144Z,19.98
2019-01-26T16:50:30.785Z,11.12
2019-01-26T16:53:12.466Z,24.50
2019-01-26T16:55:41.242Z,20.37
2019-01-26T16:58:29.312Z,23.70
2019-01-26T17:01:10.533Z,25.77
2019-01-26T17:03:39.317Z,21.50
2019-01-26T17:06:27.288Z,12.05
2019-01-26T17:09:08.937Z,13.75
2019-01-26T17:11:56.986Z,8.00
2019-01-26T17:14:44.972Z,11.38
2019-01-26T17:17:33.043Z,12.82
2019-01-26T17:20:16.547Z,7.85
2019-01-26T17:23:04.707Z,11.22
2019-01-26T17:25:46.486Z,13.58
2019-01-26T17:28:34.533Z,7.62
2019-01-26T17:31:03.318Z,12.13
2019-01-26T17:33:51.379Z,9.95
2019-01-26T17:36:39.367Z,10.15
2019-01-26T17:39:22.369Z,12.18
2019-01-26T17:42:04.233Z,10.45
2019-01-26T17:44:52.446Z,9.80
2019-01-26T17:47:34.331Z,7.22
2019-01-26T17:50:42.076Z,8.73
2019-01-26T17:53:19.237Z,7.00
2019-01-26T17:56:07.180Z,6.15
2019-01-26T17:58:55.242Z,6.10
2019-01-26T18:01:37.216Z,10.20
2019-01-26T18:04:25.272Z,21.85
2019-01-26T18:07:07.426Z,10.35
2019-01-26T18:09:49.248Z,8.13
2019-01-26T18:12:37.175Z,8.08
2019-01-26T18:15:19.428Z,7.33
2019-01-26T18:18:07.501Z,6.17
2019-01-26T18:20:49.615Z,5.33
2019-01-26T18:23:37.841Z,8.00
2019-01-26T18:26:25.843Z,5.85
2019-01-26T18:29:07.618Z,20.72
2019-01-26T18:31:55.597Z,13.65
2019-01-26T18:34:37.530Z,7.33
2019-01-26T18:37:25.569Z,9.85
2019-01-26T18:40:08.595Z,11.73
2019-01-26T18:42:56.844Z,8.13
2019-01-26T18:45:38.868Z,6.25
2019-01-26T18:48:26.819Z,13.08
2019-01-26T18:51:08.415Z,18.75
2019-01-26T18:53:56.405Z,9.73
2019-01-26T18:56:37.528Z,9.80
2019-01-26T18:59:25.545Z,6.80
2019-01-26T19:02:06.998Z,8.68
2019-01-26T19:04:54.960Z,11.33
2019-01-26T19:07:42.904Z,11.00
2019-01-26T19:10:30.888Z,4.85
2019-01-26T19:13:12.929Z,4.72
2019-01-26T19:16:00.853Z,6.30
2019-01-26T19:18:43.124Z,5.03
2019-01-26T19:21:11.858Z,6.35
2019-01-26T19:23:59.900Z,11.57
2019-01-26T19:26:41.132Z,5.15
2019-01-26T19:29:29.137Z,12.25
2019-01-26T19:32:10.934Z,6.72
2019-01-26T19:34:39.519Z,6.17
2019-01-26T19:37:27.480Z,6.78
2019-01-26T19:40:10.299Z,4.30
2019-01-26T19:42:58.372Z,4.80
2019-01-26T19:45:40.490Z,4.30
2019-01-26T19:48:28.502Z,4.28
2019-01-26T19:51:16.465Z,4.90
2019-01-26T19:53:58.414Z,6.97
2019-01-26T19:56:46.380Z,5.25
2019-01-26T19:59:15.088Z,4.75
2019-01-26T20:02:03.124Z,8.05
2019-01-26T20:04:31.873Z,3.98
2019-01-26T20:07:19.904Z,10.03
2019-01-26T20:10:01.110Z,3.72
2019-01-26T20:12:49.114Z,3.67
2019-01-26T20:15:30.437Z,4.03
2019-01-26T20:18:18.412Z,4.20
2019-01-26T20:21:00.310Z,4.47
2019-01-26T20:23:48.353Z,4.17
2019-01-26T20:26:30.568Z,7.30
2019-01-26T20:29:18.580Z,3.62
2019-01-26T20:32:00.728Z,5.60
2019-01-26T20:34:48.633Z,4.15
2019-01-26T20:37:36.672Z,3.92
2019-01-26T20:40:18.678Z,4.33
2019-01-26T20:43:06.709Z,4.42
2019-01-26T20:45:48.076Z,6.70
2019-01-26T20:48:36.085Z,5.60
2019-01-26T20:51:25.014Z,5.85
2019-01-26T20:54:07.321Z,5.85
2019-01-26T20:56:55.353Z,6.95
2019-01-26T20:59:36.929Z,6.15
2019-01-26T21:02:24.849Z,4.20
2019-01-26T21:05:08.726Z,4.22
2019-01-26T21:07:56.968Z,4.80
2019-01-26T21:10:38.132Z,4.62
2019-01-26T21:13:26.153Z,5.85
2019-01-26T21:15:54.940Z,3.50
2019-01-26T21:18:42.939Z,2.98
2019-01-26T21:21:24.774Z,6.60
2019-01-26T21:24:12.763Z,5.67
2019-01-26T21:26:54.683Z,4.08
2019-01-26T21:29:42.656Z,6.62
2019-01-26T21:32:24.002Z,4.28
2019-01-26T21:35:12.069Z,4.00
2019-01-26T21:38:00.007Z,3.92
2019-01-26T21:40:48.057Z,3.42
2019-01-26T21:43:29.564Z,3.72
2019-01-26T21:46:17.569Z,4.58
2019-01-26T21:49:03.605Z,5.75
2019-01-26T21:51:51.737Z,5.12
2019-01-26T21:54:33.729Z,3.67
2019-01-26T21:57:21.704Z,3.40
2019-01-26T22:00:04.997Z,3.65
2019-01-26T22:02:53.021Z,6.28
2019-01-26T22:05:35.123Z,5.08
2019-01-26T22:08:23.141Z,3.20
2019-01-26T22:11:05.062Z,3.05
2019-01-26T22:13:52.996Z,4.42
2019-01-26T22:16:34.861Z,5.33
2019-01-26T22:19:22.896Z,2.77
2019-01-26T22:22:04.940Z,4.37
2019-01-26T22:24:53.058Z,3.60
2019-01-26T22:27:35.093Z,3.50
2019-01-26T22:30:42.381Z,2.70
2019-01-26T22:33:25.016Z,3.12
2019-01-26T22:36:13.060Z,5.22
2019-01-26T22:38:54.908Z,4.10
2019-01-26T22:41:42.966Z,4.10
2019-01-26T22:44:24.617Z,7.47
2019-01-26T22:47:12.572Z,3.25
2019-01-26T22:49:54.561Z,5.53
2019-01-26T22:52:42.614Z,4.78
2019-01-26T22:55:24.803Z,4.75
2019-01-26T22:58:07.677Z,2.77
2019-01-26T23:01:09.756Z,6.60
2019-01-26T23:03:53.284Z,4.33
2019-01-26T23:07:00.621Z,4.35
2019-01-26T23:10:07.942Z,3.87
2019-01-26T23:12:51.413Z,3.80
2019-01-26T23:15:58.652Z,2.80
2019-01-26T23:18:59.996Z,6.50
2019-01-26T23:22:02.453Z,3.42
2019-01-26T23:25:09.782Z,3.98
2019-01-26T23:28:17.120Z,3.10
2019-01-26T23:31:24.435Z,2.65
2019-01-26T23:34:09.761Z,3.12
2019-01-26T23:36:38.520Z,3.35
2019-01-26T23:39:28.530Z,5.90
2019-01-26T23:42:16.552Z,2.65
2019-01-26T23:44:58.600Z,4.08
2019-01-26T23:47:46.723Z,3.45
2019-01-26T23:50:28.008Z,2.75
2019-01-26T23:53:09.117Z,4.28
2019-01-26T23:55:57.102Z,3.10
2019-01-26T23:58:25.690Z,2.62
